Time;durP1;ratioP1;P1;durP2;ratioP2;P2;SDS_P1;SDS_P2;PMS_P1;PMS_P2;Temp;Humidity;BMP_temperature;BMP_pressure;BME280_temperature;BME280_humidity;BME280_pressure;Samples;Min_cycle;Max_cycle;Signal;HPM_P1;HPM_P2
2021/10/13 00:01:36;;;;;;;30.12;14.53;;;;;;;7.88;100.00;98743.67;4554090;76;28469;-78
2021/10/13 00:07:37;;;;;;;24.60;12.75;;;;;;;7.78;100.00;98743.65;4573225;76;28601;-77
2021/10/13 00:13:39;;;;;;;21.65;12.03;;;;;;;7.86;100.00;98743.05;4548450;76;28454;-79
2021/10/13 00:19:40;;;;;;;23.05;12.25;;;;;;;7.91;100.00;98748.57;4521486;77;28513;-77
2021/10/13 00:25:41;;;;;;;20.27;11.43;;;;;;;7.87;100.00;98742.03;4527486;76;28520;-78
2021/10/13 00:31:43;;;;;;;19.98;10.90;;;;;;;7.75;100.00;98745.94;4568737;76;28495;-78
2021/10/13 00:37:44;;;;;;;18.87;10.43;;;;;;;7.75;100.00;98742.73;4576645;76;28836;-77
2021/10/13 00:43:45;;;;;;;20.90;11.68;;;;;;;7.73;100.00;98742.67;4537700;76;28484;-77
2021/10/13 00:49:47;;;;;;;22.42;12.33;;;;;;;7.78;100.00;98749.00;4502929;77;28484;-79
2021/10/13 00:55:48;;;;;;;21.33;11.73;;;;;;;7.75;100.00;98754.77;4561735;77;28489;-77
2021/10/13 01:02:04;;;;;;;17.80;10.38;;;;;;;7.74;100.00;98745.11;4561705;77;28480;-78
2021/10/13 01:08:19;;;;;;;;;;;;;;;7.86;100.00;98743.87;4526875;78;28472;-78
2021/10/13 01:14:38;;;;;;;22.87;12.23;;;;;;;7.80;100.00;98744.24;4549988;78;20221;-78
2021/10/13 01:21:02;;;;;;;17.07;10.72;;;;;;;7.89;100.00;98748.78;4541938;76;28554;-77
2021/10/13 01:27:30;;;;;;;20.20;11.35;;;;;;;7.87;100.00;98751.41;4539547;78;28489;-79
2021/10/13 01:33:42;;;;;;;17.00;9.78;;;;;;;7.80;100.00;98761.64;4557839;77;28483;-78
2021/10/13 01:39:48;;;;;;;15.53;9.50;;;;;;;7.78;100.00;98759.70;4523486;77;28468;-79
2021/10/13 01:45:51;;;;;;;19.12;10.70;;;;;;;7.78;100.00;98761.55;4528953;76;28456;-78
2021/10/13 01:51:53;;;;;;;18.23;10.08;;;;;;;7.73;100.00;98757.39;4550158;77;28564;-78
2021/10/13 01:57:58;;;;;;;16.62;9.18;;;;;;;7.68;100.00;98766.07;4565074;77;28512;-78
2021/10/13 02:04:07;;;;;;;15.55;8.23;;;;;;;7.68;100.00;98765.53;4554519;77;28567;-77
2021/10/13 02:10:11;;;;;;;16.27;8.18;;;;;;;7.78;100.00;98768.24;4557514;78;28552;-81
2021/10/13 02:16:13;;;;;;;17.12;8.85;;;;;;;7.62;100.00;98769.61;4567140;78;28523;-80
2021/10/13 02:22:17;;;;;;;16.23;9.80;;;;;;;7.68;100.00;98780.25;4566274;77;28492;-77
2021/10/13 02:28:41;;;;;;;16.37;9.25;;;;;;;7.66;100.00;98792.23;4565763;78;28538;-77
2021/10/13 02:34:43;;;;;;;16.23;9.25;;;;;;;7.64;100.00;98796.96;4555119;77;28485;-77
2021/10/13 02:40:44;;;;;;;19.82;10.63;;;;;;;7.72;100.00;98796.70;4437557;79;28501;-78
2021/10/13 02:47:02;;;;;;;19.95;10.50;;;;;;;7.70;100.00;98802.80;4407571;80;28525;-78
2021/10/13 02:53:12;;;;;;;18.15;10.58;;;;;;;7.77;100.00;98808.09;4495108;78;28455;-77
2021/10/13 02:59:26;;;;;;;18.73;10.38;;;;;;;7.60;100.00;98818.52;4553961;78;28468;-77
2021/10/13 03:05:28;;;;;;;16.70;9.38;;;;;;;7.61;100.00;98821.48;4550986;78;28481;-78
2021/10/13 03:11:32;;;;;;;22.17;11.30;;;;;;;7.61;100.00;98824.16;4531050;78;28454;-77
2021/10/13 03:17:36;;;;;;;20.10;12.18;;;;;;;7.71;100.00;98839.22;4553555;78;28524;-79
2021/10/13 03:23:37;;;;;;;20.50;10.10;;;;;;;7.62;100.00;98847.20;4553564;77;28452;-78
2021/10/13 03:29:42;;;;;;;16.77;8.15;;;;;;;7.59;100.00;98853.00;4553542;78;28484;-78
2021/10/13 03:35:44;;;;;;;8.63;5.40;;;;;;;7.51;100.00;98859.43;4531988;78;28499;-78
2021/10/13 03:41:45;;;;;;;15.03;6.15;;;;;;;7.54;100.00;98870.50;4551307;78;28493;-79
2021/10/13 03:47:48;;;;;;;10.48;5.87;;;;;;;7.47;100.00;98868.41;4553300;78;28473;-77
2021/10/13 03:53:50;;;;;;;10.90;6.03;;;;;;;7.54;100.00;98874.51;4553551;78;28473;-77
2021/10/13 03:59:51;;;;;;;9.93;5.90;;;;;;;7.36;100.00;98889.95;4553775;78;28483;-77
2021/10/13 04:05:52;;;;;;;10.28;6.60;;;;;;;7.33;100.00;98899.74;4560434;78;28511;-77
2021/10/13 04:11:54;;;;;;;9.08;6.10;;;;;;;7.25;100.00;98902.16;4521962;77;28540;-77
2021/10/13 04:17:55;;;;;;;11.57;5.83;;;;;;;7.18;100.00;98900.02;4537642;78;28741;-77
2021/10/13 04:23:56;;;;;;;10.70;5.47;;;;;;;7.22;100.00;98915.12;4538826;78;28521;-77
2021/10/13 04:29:58;;;;;;;12.10;6.60;;;;;;;7.17;100.00;98922.44;4539139;78;28496;-78
2021/10/13 04:35:59;;;;;;;10.10;6.03;;;;;;;6.97;100.00;98926.00;4529502;78;28513;-78
2021/10/13 04:42:01;;;;;;;9.40;5.95;;;;;;;6.66;100.00;98932.86;4515304;78;28437;-77
2021/10/13 04:48:03;;;;;;;10.93;7.33;;;;;;;6.57;100.00;98933.30;4528065;78;28426;-78
2021/10/13 04:54:04;;;;;;;9.70;6.78;;;;;;;6.22;100.00;98934.33;4539171;78;28466;-77
2021/10/13 05:00:07;;;;;;;12.80;7.33;;;;;;;6.45;100.00;98935.76;4538910;78;28473;-80
2021/10/13 05:06:08;;;;;;;11.70;7.17;;;;;;;6.34;100.00;98942.03;4463726;78;28496;-78
2021/10/13 05:12:10;;;;;;;9.13;6.33;;;;;;;6.23;100.00;98947.45;4529127;78;28454;-78
2021/10/13 05:18:11;;;;;;;10.03;5.58;;;;;;;6.31;100.00;98966.98;4521268;77;28469;-79
2021/10/13 05:24:13;;;;;;;6.97;4.78;;;;;;;6.27;100.00;98967.90;4535482;78;28505;-78
2021/10/13 05:30:14;;;;;;;9.83;6.25;;;;;;;6.22;100.00;98995.73;4523112;78;28564;-79
2021/10/13 05:36:16;;;;;;;6.58;4.20;;;;;;;6.37;100.00;98993.68;4527438;78;28470;-80
2021/10/13 05:42:17;;;;;;;6.10;4.12;;;;;;;6.38;100.00;99011.34;4515144;78;28572;-78
2021/10/13 05:48:19;;;;;;;9.35;5.58;;;;;;;6.35;100.00;99021.61;4507042;78;28535;-78
2021/10/13 05:54:20;;;;;;;8.03;5.35;;;;;;;6.37;100.00;99037.75;4527746;78;28502;-77
2021/10/13 06:00:26;;;;;;;10.32;6.78;;;;;;;6.59;100.00;99043.42;4510967;78;28577;-78
2021/10/13 06:06:24;;;;;;;11.35;7.72;;;;;;;6.64;100.00;99055.14;4543176;77;28481;-78
2021/10/13 06:12:29;;;;;;;9.68;6.15;;;;;;;6.69;100.00;99062.02;4549905;78;28457;-79
2021/10/13 06:18:30;;;;;;;12.60;7.92;;;;;;;6.67;100.00;99080.64;4562572;78;28457;-81
2021/10/13 06:24:31;;;;;;;10.72;7.03;;;;;;;6.90;100.00;99088.23;4515720;78;28475;-79
2021/10/13 06:30:37;;;;;;;8.83;5.70;;;;;;;6.94;100.00;99099.34;4529116;77;28610;-77
2021/10/13 06:36:36;;;;;;;10.05;6.22;;;;;;;6.93;100.00;99111.89;4511800;76;28492;-79
2021/10/13 06:42:38;;;;;;;6.75;4.45;;;;;;;7.01;100.00;99113.53;4545154;76;28452;-77
2021/10/13 06:48:39;;;;;;;6.03;4.28;;;;;;;7.20;100.00;99127.11;4561078;76;28534;-84
2021/10/13 06:54:40;;;;;;;6.83;5.17;;;;;;;7.27;100.00;99127.09;4536140;78;28467;-80
2021/10/13 07:00:41;;;;;;;6.42;4.47;;;;;;;7.41;100.00;99125.23;4513069;77;28909;-81
2021/10/13 07:06:43;;;;;;;8.15;5.33;;;;;;;7.43;100.00;99130.66;4516617;76;28509;-79
2021/10/13 07:12:45;;;;;;;9.63;5.85;;;;;;;7.37;100.00;99138.20;4488201;78;28473;-81
2021/10/13 07:18:47;;;;;;;9.45;5.45;;;;;;;7.27;100.00;99147.16;4549128;76;28542;-82
2021/10/13 07:24:48;;;;;;;8.78;5.33;;;;;;;7.42;100.00;99155.77;4543508;76;28502;-81
2021/10/13 07:30:49;;;;;;;7.53;5.10;;;;;;;7.72;100.00;99158.52;4442861;78;28448;-82
2021/10/13 07:36:51;;;;;;;9.68;5.55;;;;;;;7.90;100.00;99169.89;4452306;77;28492;-84
2021/10/13 07:42:53;;;;;;;8.30;5.15;;;;;;;7.61;100.00;99179.53;4484564;77;28466;-83
2021/10/13 07:48:55;;;;;;;13.10;6.45;;;;;;;7.47;100.00;99177.39;4539785;76;28622;-81
2021/10/13 07:54:57;;;;;;;7.40;4.92;;;;;;;7.71;100.00;99173.74;4520651;76;28482;-82
2021/10/13 08:00:58;;;;;;;8.10;4.87;;;;;;;7.58;100.00;99173.77;4523096;77;28530;-82
2021/10/13 08:06:59;;;;;;;7.25;3.80;;;;;;;8.03;100.00;99164.48;4531776;76;28500;-82
2021/10/13 08:13:01;;;;;;;8.98;5.97;;;;;;;8.31;100.00;99174.58;4527407;76;28521;-82
2021/10/13 08:19:02;;;;;;;12.07;6.83;;;;;;;8.46;100.00;99168.95;4486564;78;28535;-81
2021/10/13 08:25:05;;;;;;;8.95;5.33;;;;;;;8.43;100.00;99177.42;4507834;78;28525;-81
2021/10/13 08:31:06;;;;;;;7.40;4.92;;;;;;;8.37;100.00;99174.55;4514293;78;28455;-81
2021/10/13 08:37:08;;;;;;;7.33;4.92;;;;;;;8.44;100.00;99185.26;4504185;78;28479;-82
2021/10/13 08:43:11;;;;;;;10.75;5.15;;;;;;;8.08;100.00;99182.09;4514594;78;28534;-82
2021/10/13 08:49:12;;;;;;;6.92;4.10;;;;;;;8.57;100.00;99188.40;4500210;78;28483;-81
2021/10/13 08:55:15;;;;;;;8.30;4.87;;;;;;;8.58;100.00;99186.02;4526499;78;28437;-76
2021/10/13 09:01:16;;;;;;;8.98;5.15;;;;;;;8.04;100.00;99192.91;4513856;77;28490;-76
2021/10/13 09:07:18;;;;;;;10.60;5.20;;;;;;;8.19;100.00;99196.67;4454008;78;28480;-80
2021/10/13 09:13:19;;;;;;;7.45;5.45;;;;;;;8.33;100.00;99198.79;4467356;77;28534;-80
2021/10/13 09:19:27;;;;;;;11.68;6.35;;;;;;;8.32;100.00;99208.36;4403397;78;28425;-86
2021/10/13 09:25:30;;;;;;;12.10;6.33;;;;;;;8.46;100.00;99213.16;4358146;79;28458;-78
2021/10/13 09:31:31;;;;;;;11.05;7.12;;;;;;;8.72;100.00;99220.81;4388776;79;28458;-82
2021/10/13 09:37:47;;;;;;;11.10;7.03;;;;;;;8.70;100.00;99223.70;4363175;78;28489;-82
2021/10/13 09:43:48;;;;;;;12.93;7.25;;;;;;;9.04;100.00;99216.27;4517916;77;28467;-84
2021/10/13 09:49:49;;;;;;;11.55;6.83;;;;;;;9.27;100.00;99223.45;4532393;76;28464;-80
2021/10/13 09:55:51;;;;;;;11.08;7.33;;;;;;;9.29;100.00;99220.02;4533636;76;28484;-82
2021/10/13 10:01:58;;;;;;;11.43;7.40;;;;;;;9.41;100.00;99232.22;4522168;76;28554;-81
2021/10/13 10:08:10;;;;;;;6.40;3.80;;;;;;;9.53;100.00;99236.34;4535468;76;28475;-81
2021/10/13 10:14:37;;;;;;;4.90;3.30;;;;;;;9.40;100.00;99242.12;4559224;76;28500;-81
2021/10/13 10:20:41;;;;;;;7.15;4.40;;;;;;;9.22;100.00;99231.34;4537932;76;28431;-79
2021/10/13 10:26:42;;;;;;;7.72;4.78;;;;;;;8.81;100.00;99232.94;4540706;76;28500;-80
2021/10/13 10:33:05;;;;;;;8.68;5.12;;;;;;;8.74;100.00;99240.18;4530777;76;28445;-79
2021/10/13 10:39:13;;;;;;;11.78;7.37;;;;;;;9.15;100.00;99236.73;4514626;76;28533;-79
2021/10/13 10:45:30;;;;;;;14.90;8.30;;;;;;;9.42;100.00;99228.50;4534299;76;28493;-78
2021/10/13 10:51:35;;;;;;;12.75;8.05;;;;;;;9.70;100.00;99226.70;4540486;76;28446;-82
2021/10/13 10:57:40;;;;;;;11.83;7.67;;;;;;;9.86;100.00;99220.48;4518207;76;28526;-80
2021/10/13 11:03:43;;;;;;;12.45;8.40;;;;;;;9.73;100.00;99229.47;4535455;76;28499;-80
2021/10/13 11:09:44;;;;;;;13.72;8.75;;;;;;;9.26;100.00;99238.72;4536095;77;28533;-80
2021/10/13 11:15:47;;;;;;;11.68;7.00;;;;;;;9.32;100.00;99245.07;4508240;77;28478;-79
2021/10/13 11:22:08;;;;;;;11.45;8.03;;;;;;;9.23;100.00;99250.42;4528884;76;28444;-79
2021/10/13 11:28:13;;;;;;;14.73;8.43;;;;;;;9.42;100.00;99256.67;4515342;77;28499;-81
2021/10/13 11:34:17;;;;;;;12.05;6.87;;;;;;;9.42;100.00;99250.77;4526636;76;28478;-82
2021/10/13 11:40:20;;;;;;;7.33;4.58;;;;;;;9.44;100.00;99255.94;4535356;77;28503;-81
2021/10/13 11:46:22;;;;;;;6.53;4.10;;;;;;;9.11;100.00;99254.31;4528180;76;28456;-81
2021/10/13 11:52:23;;;;;;;7.85;5.00;;;;;;;9.15;100.00;99251.48;4557180;76;28454;-81
2021/10/13 11:58:31;;;;;;;12.13;6.78;;;;;;;9.14;100.00;99253.36;4492245;77;28929;-80
2021/10/13 12:04:32;;;;;;;10.28;6.72;;;;;;;9.51;100.00;99247.31;4522884;76;28549;-80
2021/10/13 12:10:45;;;;;;;12.45;7.95;;;;;;;9.87;100.00;99240.38;4517889;77;28485;-81
2021/10/13 12:16:46;;;;;;;12.00;7.75;;;;;;;10.09;100.00;99237.80;4524688;76;28513;-81
2021/10/13 12:22:50;;;;;;;11.65;6.95;;;;;;;10.31;100.00;99240.88;4533265;76;28487;-79
2021/10/13 12:28:55;;;;;;;6.50;4.30;;;;;;;10.35;100.00;99238.54;4528393;76;28531;-79
2021/10/13 12:35:02;;;;;;;5.80;3.65;;;;;;;9.87;100.00;99251.12;4513836;77;28517;-81
2021/10/13 12:41:06;;;;;;;6.50;3.65;;;;;;;9.87;100.00;99243.06;4565555;76;28479;-81
2021/10/13 12:47:15;;;;;;;5.90;3.62;;;;;;;9.33;100.00;99251.57;4523989;76;28454;-86
2021/10/13 12:53:16;;;;;;;5.87;3.35;;;;;;;9.41;100.00;99250.48;4556102;76;28579;-86
2021/10/13 12:59:18;;;;;;;3.87;2.30;;;;;;;9.86;100.00;99245.45;4525404;77;28491;-88
2021/10/13 13:05:19;;;;;;;3.60;2.35;;;;;;;9.92;100.00;99259.86;4530700;77;28555;-85
2021/10/13 13:11:20;;;;;;;3.58;2.47;;;;;;;10.01;100.00;99249.13;4532007;76;28540;-86
2021/10/13 13:17:22;;;;;;;4.17;2.40;;;;;;;9.81;100.00;99258.73;4545437;76;28437;-86
2021/10/13 13:23:23;;;;;;;5.60;2.25;;;;;;;9.93;100.00;99261.50;4530188;76;28512;-85
2021/10/13 13:29:25;;;;;;;3.08;1.98;;;;;;;9.58;100.00;99266.88;4518463;76;28477;-84
2021/10/13 13:35:27;;;;;;;2.00;1.10;;;;;;;8.98;100.00;99290.91;4515017;76;28531;-83
2021/10/13 13:41:28;;;;;;;2.12;1.57;;;;;;;8.69;100.00;99274.83;4416842;78;28550;-83
2021/10/13 13:47:31;;;;;;;2.17;1.45;;;;;;;8.48;100.00;99290.13;4460622;77;28524;-86
2021/10/13 13:53:33;;;;;;;2.62;1.92;;;;;;;8.56;100.00;99304.67;4506729;78;28484;-85
2021/10/13 13:59:34;;;;;;;3.95;2.08;;;;;;;8.28;100.00;99300.91;4519028;77;28461;-81
2021/10/13 14:05:36;;;;;;;4.72;2.35;;;;;;;8.35;100.00;99307.89;4512454;77;28454;-82
2021/10/13 14:11:46;;;;;;;4.30;2.47;;;;;;;8.22;100.00;99306.59;4513939;77;28444;-81
2021/10/13 14:18:02;;;;;;;4.83;2.33;;;;;;;8.19;100.00;99322.56;4307040;81;28513;-83
2021/10/13 14:24:05;;;;;;;3.60;1.50;;;;;;;8.32;100.00;99327.08;4377705;79;28465;-81
2021/10/13 14:30:09;;;;;;;3.65;2.22;;;;;;;8.43;100.00;99335.50;4525709;77;28451;-85
2021/10/13 14:36:11;;;;;;;4.55;2.30;;;;;;;8.48;100.00;99332.50;4546636;76;28450;-87
2021/10/13 14:42:16;;;;;;;5.00;2.35;;;;;;;8.59;100.00;99339.12;4404581;79;28478;-94
2021/10/13 14:48:17;;;;;;;3.37;1.95;;;;;;;8.49;100.00;99344.87;4408418;79;28548;-89
2021/10/13 14:54:18;;;;;;;5.22;2.30;;;;;;;8.47;100.00;99350.95;4420248;79;28521;-88
2021/10/13 15:00:20;;;;;;;3.52;1.98;;;;;;;8.46;100.00;99357.35;4355862;79;28451;-84
2021/10/13 15:06:21;;;;;;;5.15;2.70;;;;;;;8.46;100.00;99365.39;4529710;77;28539;-85
2021/10/13 15:12:24;;;;;;;6.15;2.83;;;;;;;8.42;100.00;99369.50;4355543;80;28486;-83
2021/10/13 15:18:26;;;;;;;5.25;3.20;;;;;;;8.21;100.00;99364.69;4341981;78;28461;-82
2021/10/13 15:24:28;;;;;;;6.00;3.70;;;;;;;7.93;100.00;99381.81;4384404;78;28488;-85
2021/10/13 15:30:29;;;;;;;8.33;4.50;;;;;;;7.89;100.00;99379.22;4344131;79;28527;-81
2021/10/13 15:36:30;;;;;;;8.33;4.80;;;;;;;7.93;100.00;99384.48;4353000;78;28577;-82
2021/10/13 15:42:32;;;;;;;7.47;4.97;;;;;;;8.01;100.00;99396.84;4365316;78;28512;-82
2021/10/13 15:48:33;;;;;;;9.60;4.95;;;;;;;8.05;100.00;99393.24;4347355;78;28467;-78
2021/10/13 15:54:35;;;;;;;8.80;5.30;;;;;;;8.09;100.00;99405.18;4369259;78;28469;-71
2021/10/13 16:06:53;;;;;;;7.33;4.17;;;;;;;7.61;100.00;99432.91;4597749;75;82948;-83
2021/10/13 16:12:54;;;;;;;4.75;2.72;;;;;;;7.46;100.00;99447.29;4515961;78;28534;-84
2021/10/13 16:18:56;;;;;;;5.90;2.65;;;;;;;7.55;100.00;99433.20;4516889;77;28485;-83
2021/10/13 16:24:57;;;;;;;5.40;2.70;;;;;;;7.34;100.00;99435.48;4498676;78;28501;-84
2021/10/13 16:30:59;;;;;;;4.78;2.67;;;;;;;7.16;100.00;99442.23;4478487;79;28497;-84
2021/10/13 16:37:00;;;;;;;4.17;2.20;;;;;;;6.91;100.00;99459.27;4318443;82;28490;-83
2021/10/13 16:43:01;;;;;;;4.62;2.47;;;;;;;6.80;100.00;99468.64;4317122;82;28522;-84
2021/10/13 16:49:03;;;;;;;4.37;2.20;;;;;;;6.79;100.00;99483.88;4367052;81;28484;-84
2021/10/13 16:55:06;;;;;;;4.33;2.50;;;;;;;6.55;100.00;99479.26;4316312;82;28506;-85
2021/10/13 17:01:07;;;;;;;3.80;2.62;;;;;;;6.52;100.00;99484.19;4346515;81;28527;-83
2021/10/13 17:07:09;;;;;;;4.20;2.90;;;;;;;6.27;100.00;99485.91;4311379;82;28586;-83
2021/10/13 17:13:11;;;;;;;3.52;2.12;;;;;;;6.13;100.00;99493.81;4358418;80;28578;-81
2021/10/13 17:19:13;;;;;;;3.05;2.35;;;;;;;6.06;100.00;99496.11;4371002;81;28469;-83
2021/10/13 17:25:14;;;;;;;3.15;2.17;;;;;;;6.11;100.00;99493.68;4356901;80;28519;-85
2021/10/13 17:31:16;;;;;;;5.97;2.60;;;;;;;5.99;100.00;99500.02;4353836;80;28543;-83
2021/10/13 17:37:19;;;;;;;3.90;2.25;;;;;;;6.03;100.00;99511.98;4310077;81;28559;-84
2021/10/13 17:43:20;;;;;;;5.42;2.60;;;;;;;5.96;100.00;99511.05;4367444;80;28589;-85
2021/10/13 17:49:21;;;;;;;4.45;2.70;;;;;;;5.94;100.00;99518.42;4353959;80;28540;-86
2021/10/13 17:55:23;;;;;;;4.97;2.60;;;;;;;5.80;100.00;99518.29;4362228;81;28507;-87
2021/10/13 18:01:24;;;;;;;4.78;2.65;;;;;;;5.72;100.00;99529.06;4361679;80;28553;-88
2021/10/13 18:07:27;;;;;;;7.20;4.00;;;;;;;5.81;100.00;99536.44;4340912;80;28475;-86
2021/10/13 18:13:29;;;;;;;7.70;4.45;;;;;;;5.78;100.00;99539.00;4345861;80;28476;-88
2021/10/13 18:19:30;;;;;;;11.33;5.37;;;;;;;5.81;100.00;99543.11;4403926;78;28479;-88
2021/10/13 18:25:32;;;;;;;17.00;9.58;;;;;;;5.86;100.00;99547.39;4435156;78;28458;-85
2021/10/13 18:31:35;;;;;;;20.75;11.18;;;;;;;5.93;100.00;99556.28;4368465;80;28534;-87
2021/10/13 18:37:37;;;;;;;22.85;12.23;;;;;;;6.04;100.00;99563.52;4373339;80;28499;-86
2021/10/13 18:43:39;;;;;;;20.57;11.93;;;;;;;6.16;100.00;99568.70;4356161;81;28453;-84
2021/10/13 18:49:40;;;;;;;21.00;11.93;;;;;;;6.23;100.00;99580.27;4359890;80;28479;-85
2021/10/13 18:55:42;;;;;;;27.95;13.83;;;;;;;6.31;100.00;99573.16;4356228;80;28491;-86
2021/10/13 19:01:43;;;;;;;30.52;15.85;;;;;;;6.45;100.00;99588.28;4349202;80;28469;-83
2021/10/13 19:07:44;;;;;;;34.92;19.42;;;;;;;6.42;100.00;99592.69;4360796;80;28504;-86
2021/10/13 19:13:46;;;;;;;39.23;20.35;;;;;;;6.53;100.00;99597.52;4349612;80;28444;-86
2021/10/13 19:19:47;;;;;;;36.53;18.17;;;;;;;6.52;100.00;99596.39;4341083;80;28459;-86
2021/10/13 19:25:48;;;;;;;35.40;18.73;;;;;;;6.53;100.00;99598.85;4352535;80;28463;-85
2021/10/13 19:31:52;;;;;;;37.15;17.95;;;;;;;6.47;100.00;99606.31;4359145;80;28476;-82
2021/10/13 19:37:54;;;;;;;36.30;19.17;;;;;;;6.51;100.00;99611.58;4346992;80;28456;-82
2021/10/13 19:43:56;;;;;;;35.73;18.55;;;;;;;6.54;100.00;99607.70;4344637;80;28511;-82
2021/10/13 19:49:57;;;;;;;31.52;16.20;;;;;;;6.51;100.00;99612.11;4366546;80;28502;-80
2021/10/13 19:55:59;;;;;;;32.42;16.23;;;;;;;6.54;100.00;99615.20;4427968;79;28462;-80
2021/10/13 20:02:02;;;;;;;30.82;15.98;;;;;;;6.51;100.00;99612.11;4337959;81;28546;-80
2021/10/13 20:08:04;;;;;;;30.15;16.62;;;;;;;6.59;100.00;99622.64;4388138;80;28539;-80
2021/10/13 20:14:11;;;;;;;35.58;17.07;;;;;;;6.53;100.00;99618.08;4392156;81;28502;-85
2021/10/13 20:20:13;;;;;;;30.82;15.58;;;;;;;6.53;100.00;99624.76;4321257;81;28466;-85
2021/10/13 20:26:14;;;;;;;26.62;14.03;;;;;;;6.49;100.00;99634.99;4400425;80;28452;-85
2021/10/13 20:32:16;;;;;;;26.02;14.05;;;;;;;6.61;100.00;99642.50;4390404;80;28465;-83
2021/10/13 20:38:17;;;;;;;27.32;15.30;;;;;;;6.65;100.00;99641.94;4403099;80;28468;-85
2021/10/13 20:44:18;;;;;;;29.40;15.55;;;;;;;6.61;100.00;99643.34;4384101;80;28487;-82
2021/10/13 20:50:20;;;;;;;26.27;14.47;;;;;;;6.51;100.00;99639.62;4367995;80;28448;-83
2021/10/13 20:56:22;;;;;;;27.20;13.68;;;;;;;6.47;100.00;99642.87;4360351;80;28465;-83
2021/10/13 21:02:23;;;;;;;30.68;15.65;;;;;;;6.48;100.00;99637.84;4336978;81;28476;-81
2021/10/13 21:08:25;;;;;;;28.85;15.00;;;;;;;6.47;100.00;99636.19;4364963;82;28481;-82
2021/10/13 21:14:26;;;;;;;30.50;15.43;;;;;;;6.58;100.00;99641.56;4364394;82;28449;-84
2021/10/13 21:20:28;;;;;;;27.15;14.75;;;;;;;6.46;100.00;99635.87;4430564;80;28605;-82
2021/10/13 21:26:29;;;;;;;26.93;14.30;;;;;;;6.59;100.00;99631.19;4348132;81;28436;-82
2021/10/13 21:32:31;;;;;;;27.37;14.63;;;;;;;6.55;100.00;99637.41;4367406;80;28519;-82
2021/10/13 21:38:32;;;;;;;33.90;17.20;;;;;;;6.58;100.00;99632.20;4373977;81;28488;-81
2021/10/13 21:44:34;;;;;;;34.98;18.62;;;;;;;6.54;100.00;99638.44;4415417;80;28470;-82
2021/10/13 21:50:35;;;;;;;32.83;17.00;;;;;;;6.55;100.00;99636.88;4359157;82;28436;-82
2021/10/13 21:56:36;;;;;;;31.87;16.95;;;;;;;6.54;100.00;99633.09;4431614;80;28611;-82
2021/10/13 22:02:38;;;;;;;34.35;16.90;;;;;;;6.57;100.00;99636.70;4431835;80;28535;-81
2021/10/13 22:08:39;;;;;;;36.70;19.82;;;;;;;6.68;100.00;99636.20;4437179;80;28484;-82
2021/10/13 22:14:41;;;;;;;36.53;19.17;;;;;;;6.67;100.00;99635.89;4415917;80;28479;-82
2021/10/13 22:20:42;;;;;;;36.73;18.52;;;;;;;6.66;100.00;99629.38;4451636;80;28516;-82
2021/10/13 22:26:44;;;;;;;38.08;18.95;;;;;;;6.62;100.00;99634.80;4451604;79;28526;-83
2021/10/13 22:32:50;;;;;;;37.42;18.67;;;;;;;6.62;100.00;99634.31;4450623;80;28451;-82
2021/10/13 22:38:51;;;;;;;39.15;21.02;;;;;;;6.76;100.00;99637.09;4421004;80;28487;-81
2021/10/13 22:44:53;;;;;;;38.95;21.75;;;;;;;6.82;100.00;99645.67;4452603;80;28502;-81
2021/10/13 22:50:54;;;;;;;45.88;24.05;;;;;;;6.76;100.00;99646.45;4451489;80;28452;-81
2021/10/13 22:56:56;;;;;;;39.65;20.90;;;;;;;6.75;100.00;99648.81;4451795;80;28461;-81
2021/10/13 23:02:57;;;;;;;39.00;19.67;;;;;;;6.65;100.00;99655.79;4451863;79;28479;-82
2021/10/13 23:08:58;;;;;;;39.13;20.30;;;;;;;6.74;100.00;99651.17;4473123;80;28510;-82
2021/10/13 23:14:59;;;;;;;38.48;21.40;;;;;;;6.78;100.00;99654.61;4473591;80;28488;-81
2021/10/13 23:21:02;;;;;;;43.68;23.30;;;;;;;6.80;100.00;99658.41;4473817;80;28495;-82
2021/10/13 23:27:03;;;;;;;43.78;24.23;;;;;;;6.64;100.00;99656.31;4454749;79;28480;-81
2021/10/13 23:33:06;;;;;;;43.28;22.52;;;;;;;6.61;100.00;99659.38;4442967;80;28452;-82
2021/10/13 23:39:07;;;;;;;39.80;21.12;;;;;;;6.47;100.00;99659.73;4440670;80;28426;-82
2021/10/13 23:45:10;;;;;;;41.77;21.30;;;;;;;6.44;100.00;99653.41;4414948;80;28508;-81
2021/10/13 23:51:11;;;;;;;44.08;23.12;;;;;;;6.53;100.00;99653.62;4402758;79;28499;-81
2021/10/13 23:57:13;;;;;;;42.85;23.35;;;;;;;6.56;100.00;99661.77;4357018;81;28521;-82
